Medlin's Ranch, Nevada Weather observations

Data are for observation ending at time listed.
 Day   Time    Ave.   Ave.  Ave.  Vector   Max.   Stn.    Total    Solar   Ave.  
  of    of     Air    Rel.  Wind   Wind    Wind   Baro.  Precip.   Rad.    Soil  
Year   Day     Temp.  Hum.  Speed  Dir.    Gust   Pres.                    Temp. 
2014   (PST)    F      %     mph   deg.    mph     mb.     in.     W/m2     F   
------------------------------------------------------------------------------
 265   15:00  99999.0   99999  99999.0   99999    99999.0    99999    99999.00   99999    99999.0
 265   16:00  99999.0   99999  99999.0   99999    99999.0    99999    99999.00   99999    99999.0
 265   17:00  99999.0   99999  99999.0   99999    99999.0    99999    99999.00   99999    99999.0
 265   18:00  99999.0   99999  99999.0   99999    99999.0    99999    99999.00   99999    99999.0
 265   19:00  99999.0   99999  99999.0   99999    99999.0    99999    99999.00   99999    99999.0
 265   20:00  99999.0   99999  99999.0   99999    99999.0    99999    99999.00   99999    99999.0
 265   21:00  99999.0   99999  99999.0   99999    99999.0    99999    99999.00   99999    99999.0
 265   22:00  99999.0   99999  99999.0   99999    99999.0    99999    99999.00   99999    99999.0
 265   23:00  99999.0   99999  99999.0   99999    99999.0    99999    99999.00   99999    99999.0
 266    0:00  99999.0   99999  99999.0   99999    99999.0    99999    99999.00   99999    99999.0
 266    1:00  99999.0   99999  99999.0   99999    99999.0    99999    99999.00   99999    99999.0
 266    2:00  99999.0   99999  99999.0   99999    99999.0    99999    99999.00   99999    99999.0
 266    3:00   57.8    65    3.2   295      5.1    866     0.00       0    69.8
 266    4:00   57.8    63    3.9   283      5.8    866     0.00       0    68.9
 266    5:00   56.6    66    4.3   259      5.6    866     0.00       0    68.2
 266    6:00   56.4    65    3.5   269      5.4    867     0.00      11    67.4
 266    7:00   63.7    54    2.2   305      3.7    867     0.00     159    66.9
 266    8:00   72.3    35    1.1   353      3.7    868     0.00     372    67.6
 266    9:00   75.6    30    2.1    85      5.8    868     0.00     569    70.0
 266   10:00   78.4    26    3.5    84      7.2    868     0.00     727    73.3
 266   11:00   81.4    21    4.2    97     10.7    867     0.00     828    77.0
 266   12:00   83.5    20    4.6   130     13.8    867     0.00     862    80.6
 266   13:00   85.0    17    4.0   132     13.0    866     0.00     835    83.7
 266   14:00   85.8    16    4.7   102     12.3    866     0.00     747    85.1

Return to Medlin's Ranch, Nevada graphs page.


Western Regional Climate Center,wrcc@dri.edu